MST,Max TemperatureF,Mean TemperatureF,Min TemperatureF,Max Dew PointF,MeanDew PointF,Min DewpointF,Max Humidity, Mean Humidity, Min Humidity, Max Sea Level PressureIn, Mean Sea Level PressureIn, Min Sea Level PressureIn, Max VisibilityMiles, Mean VisibilityMiles, Min VisibilityMiles, Max Wind SpeedMPH, Mean Wind SpeedMPH, Max Gust SpeedMPH,PrecipitationIn, CloudCover, Events, WindDirDegrees
2012-10-1,91,80,68,34,30,28,24,18,12,30.24,30.17,30.12,10,10,10,20,12,26,0.00,0,,77
2012-10-2,89,78,66,34,30,27,26,19,12,30.17,30.11,30.04,10,10,10,15,9,20,0.00,0,,44
2012-10-3,91,78,64,34,31,28,26,19,12,30.18,30.13,30.10,10,10,10,13,7,18,0.00,0,,160
2012-10-4,86,75,64,37,34,30,32,23,14,30.25,30.19,30.14,10,10,10,22,5,28,0.00,0,,189
2012-10-5,84,72,59,34,32,28,36,24,14,30.22,30.15,30.09,10,10,10,16,5,20,0.00,0,,144
2012-10-6,82,71,60,36,33,32,34,26,17,30.12,30.07,30.00,10,10,10,15,7,18,0.00,0,,106
2012-10-7,82,70,59,36,32,27,36,27,13,30.11,30.06,30.01,10,10,10,14,8,,0.00,0,,61
2012-10-8,82,70,59,39,36,34,42,31,19,30.14,30.09,30.03,10,10,10,18,9,23,0.00,0,,138
2012-10-9,82,70,59,43,38,32,45,33,17,30.15,30.10,30.05,10,10,10,13,6,20,0.00,0,,122
2012-10-10,80,70,59,45,40,34,55,37,21,30.16,30.09,30.02,10,10,10,18,8,28,0.00,0,,116
2012-10-11,77,65,53,55,45,37,94,55,24,30.11,30.03,29.94,10,10,10,32,6,47,0.10,5,Rain-Thunderstorm,124
2012-10-12,57,52,46,52,45,39,100,77,58,30.18,30.08,29.99,10,10,2,21,5,24,0.53,7,Rain-Thunderstorm,202
2012-10-13,68,56,44,45,40,37,76,55,40,30.26,30.21,30.16,10,10,10,17,6,22,0.00,0,,48
2012-10-14,78,68,57,41,37,32,48,35,18,30.30,30.24,30.19,10,10,7,17,8,26,0.00,0,,69
2012-10-15,82,70,59,41,34,30,45,29,15,30.21,30.14,30.06,10,10,10,15,10,21,0.00,0,,81
2012-10-16,84,72,59,36,32,27,36,26,12,30.10,30.02,29.94,10,10,10,14,8,16,0.00,0,,141
2012-10-17,86,73,60,37,32,21,36,26,12,30.13,30.05,30.00,10,10,10,13,6,,0.00,0,,81
2012-10-18,82,70,59,32,27,19,36,22,13,30.22,30.16,30.12,10,10,10,15,10,18,0.00,0,,71
2012-10-19,86,72,59,30,24,18,27,19,10,30.17,30.09,30.00,10,10,10,17,8,23,0.00,0,,53
2012-10-20,80,68,57,36,30,23,32,25,16,30.04,29.98,29.93,10,10,10,17,8,26,0.00,0,,139
2012-10-21,77,68,59,46,39,32,55,38,24,30.02,29.98,29.94,10,10,10,18,5,24,0.00,2,,178
2012-10-22,73,64,55,50,46,39,82,55,29,30.07,30.02,29.98,10,10,10,20,7,25,0.00,2,,186
2012-10-23,73,64,55,50,43,34,77,50,25,30.05,30.00,29.95,10,10,10,21,7,28,0.00,1,,193
2012-10-24,71,61,51,39,30,12,51,32,17,30.09,30.00,29.94,10,10,10,18,7,30,0.00,0,,199
2012-10-25,71,60,50,23,17,12,26,20,15,30.18,30.12,30.07,10,10,10,16,9,21,0.00,0,,55
2012-10-26,64,54,44,19,11,3,37,20,12,30.26,30.19,30.12,10,10,10,26,17,36,0.00,0,,61
2012-10-27,77,62,48,19,12,3,20,15,11,30.17,30.11,30.06,10,10,10,20,10,29,0.00,0,,66
2012-10-28,78,66,55,21,18,14,22,17,11,30.21,30.16,30.12,10,10,10,16,10,20,0.00,0,,70
2012-10-29,78,66,53,23,20,18,26,19,10,30.28,30.22,30.19,10,10,10,14,9,17,0.00,0,,67
2012-10-30,80,68,55,23,19,18,25,17,10,30.24,30.19,30.13,10,10,10,16,9,18,0.00,0,,62
2012-10-31,80,68,55,23,20,18,23,18,10,30.21,30.15,30.09,10,10,10,16,10,22,0.00,0,,71